Time;durP1;ratioP1;P1;durP2;ratioP2;P2;SDS_P1;SDS_P2;PMS_P1;PMS_P2;Temp;Humidity;BMP_temperature;BMP_pressure;BME280_temperature;BME280_humidity;BME280_pressure;Samples;Min_cycle;Max_cycle;Signal;HPM_P1;HPM_P2
2021/08/20 00:02:14;;;;;;;10.13;5.32;;;;;;;29.82;55.58;100846.78;5057013;28;70163;-45
2021/08/20 00:04:45;;;;;;;5.95;5.47;;;;;;;29.88;55.82;100860.50;5055509;28;66643;-45
2021/08/20 00:07:16;;;;;;;6.47;5.97;;;;;;;29.89;55.82;100867.56;5054924;28;70917;-45
2021/08/20 00:09:46;;;;;;;8.18;5.97;;;;;;;29.92;56.02;100869.84;5056412;28;66003;-45
2021/08/20 00:12:17;;;;;;;5.93;5.55;;;;;;;29.96;55.51;100857.56;5057057;28;69849;-46
2021/08/20 00:14:48;;;;;;;5.78;5.40;;;;;;;29.97;55.89;100870.84;5056808;28;65512;-46
2021/08/20 00:17:18;;;;;;;7.63;5.05;;;;;;;29.97;55.94;100881.66;5056874;28;70012;-46
2021/08/20 00:19:49;;;;;;;6.20;5.90;;;;;;;29.98;55.95;100887.94;5056494;28;66234;-46
2021/08/20 00:22:20;;;;;;;6.65;6.10;;;;;;;29.98;56.30;100898.75;5056248;28;70242;-46
2021/08/20 00:24:50;;;;;;;5.97;5.57;;;;;;;29.92;56.19;100888.78;5058118;28;65701;-46
2021/08/20 00:27:21;;;;;;;6.88;5.75;;;;;;;30.04;55.89;100903.31;5056946;28;70014;-46
2021/08/20 00:29:51;;;;;;;6.40;6.00;;;;;;;30.09;56.51;100908.91;5040618;28;66675;-46
2021/08/20 00:32:22;;;;;;;5.78;5.43;;;;;;;30.11;55.95;100912.19;5039175;28;68270;-46
2021/08/20 00:34:54;;;;;;;6.35;5.95;;;;;;;30.15;56.67;100921.56;5053816;28;66097;-46
2021/08/20 00:37:25;;;;;;;5.13;4.82;;;;;;;30.16;56.25;100927.81;5055945;28;70068;-45
2021/08/20 00:39:57;;;;;;;16.60;5.85;;;;;;;30.20;56.16;100935.28;5057138;28;65273;-47
2021/08/20 00:42:28;;;;;;;12.52;11.18;;;;;;;30.27;60.06;100941.50;5048302;28;69654;-47
2021/08/20 00:45:00;;;;;;;14.63;13.32;;;;;;;30.28;62.23;100939.63;5054623;28;66356;-52
2021/08/20 00:47:51;;;;;;;14.82;13.35;;;;;;;30.38;63.01;100944.59;5055761;28;69417;-46
2021/08/20 00:50:32;;;;;;;23.10;16.10;;;;;;;30.43;63.71;100955.63;5055121;28;66171;-47
2021/08/20 00:53:07;;;;;;;39.63;18.67;;;;;;;30.45;63.21;100948.09;5054864;28;70010;-48
2021/08/20 00:55:41;;;;;;;34.25;18.23;;;;;;;30.52;64.00;100959.72;5055334;28;65769;-46
2021/08/20 00:58:11;;;;;;;28.80;18.90;;;;;;;30.54;64.30;100963.06;5055121;28;70337;-48
2021/08/20 01:00:43;;;;;;;42.72;20.27;;;;;;;30.54;65.11;100951.41;5019814;28;66995;-47
2021/08/20 01:03:14;;;;;;;35.55;18.48;;;;;;;30.61;64.45;100949.47;5055611;28;69986;-47
2021/08/20 01:05:45;;;;;;;34.25;17.88;;;;;;;30.64;64.98;100944.44;5054865;28;66114;-47
2021/08/20 01:08:19;;;;;;;26.83;16.95;;;;;;;30.58;65.56;100926.38;5055064;28;70280;-46
2021/08/20 01:10:54;;;;;;;25.17;15.63;;;;;;;30.72;65.38;100932.53;5050308;28;64743;-46
2021/08/20 01:13:32;;;;;;;28.88;17.67;;;;;;;30.46;65.25;100890.22;5035874;28;70598;-47
2021/08/20 01:16:10;;;;;;;22.08;14.75;;;;;;;30.77;64.87;100938.13;5054328;28;66517;-47
2021/08/20 01:18:42;;;;;;;19.30;13.65;;;;;;;30.76;64.52;100930.22;5067759;28;69236;-47
2021/08/20 01:21:22;;;;;;;20.05;13.10;;;;;;;30.63;65.17;100895.94;5035620;28;66011;-47
2021/08/20 01:23:56;;;;;;;13.52;12.10;;;;;;;30.53;64.40;100885.56;5051628;28;70029;-47
2021/08/20 01:26:30;;;;;;;13.95;12.00;;;;;;;30.81;64.75;100930.41;5048431;28;65688;-47
2021/08/20 01:29:03;;;;;;;16.17;12.32;;;;;;;30.79;64.67;100927.09;5068371;28;70768;-49
2021/08/20 01:31:34;;;;;;;13.07;10.10;;;;;;;30.82;64.10;100932.09;5036428;28;65151;-48
2021/08/20 01:34:05;;;;;;;12.07;10.73;;;;;;;30.79;64.47;100929.81;5055151;28;69260;-48
2021/08/20 01:36:35;;;;;;;10.68;9.75;;;;;;;30.84;64.58;100947.09;5051542;28;66765;-47
2021/08/20 01:39:09;;;;;;;14.85;9.75;;;;;;;30.86;64.19;100949.56;5049427;28;70283;-49
2021/08/20 01:41:40;;;;;;;10.60;9.63;;;;;;;30.86;64.05;100946.84;5066457;28;67367;-48
2021/08/20 01:44:11;;;;;;;9.40;8.60;;;;;;;30.89;64.37;100949.13;5051974;28;70128;-48
2021/08/20 01:46:44;;;;;;;10.75;9.68;;;;;;;30.91;64.19;100953.28;5036192;28;66017;-47
2021/08/20 01:49:18;;;;;;;11.18;9.25;;;;;;;30.90;64.50;100937.25;5056469;28;69483;-47
2021/08/20 01:51:56;;;;;;;8.10;7.60;;;;;;;30.95;63.97;100940.09;5066988;28;65374;-47
2021/08/20 01:54:27;;;;;;;9.10;8.27;;;;;;;30.96;64.32;100946.38;5051739;28;69555;-47
2021/08/20 01:56:58;;;;;;;8.25;7.65;;;;;;;30.94;63.91;100938.47;5058431;28;65274;-47
2021/08/20 01:59:29;;;;;;;10.37;8.83;;;;;;;31.00;64.38;100944.88;5056602;28;70340;-48
2021/08/20 02:02:00;;;;;;;9.55;8.52;;;;;;;31.03;63.71;100947.16;5051945;28;66995;-47
2021/08/20 02:04:36;;;;;;;8.30;7.68;;;;;;;31.08;63.48;100948.16;5058574;27;69281;-48
2021/08/20 02:07:09;;;;;;;8.00;7.50;;;;;;;31.05;63.77;100947.75;5052066;28;66433;-48
2021/08/20 02:09:47;;;;;;;10.70;8.35;;;;;;;31.09;63.97;100943.56;5056963;28;69506;-47
2021/08/20 02:12:18;;;;;;;;;;;;;;;30.86;64.39;100949.56;5055396;28;66118;-47
2021/08/20 02:15:08;;;;;;;9.82;8.85;;;;;;;31.14;63.53;100947.25;5038389;28;70323;-47
2021/08/20 02:17:39;;;;;;;11.90;9.93;;;;;;;31.21;63.52;100940.97;5059622;28;65898;-50
2021/08/20 02:20:45;;;;;;;14.00;9.07;;;;;;;31.06;64.00;100917.72;5057936;28;69525;-47
2021/08/20 02:23:17;;;;;;;10.20;9.25;;;;;;;31.21;63.29;100938.28;5056143;28;67280;-47
2021/08/20 02:25:51;;;;;;;10.73;9.65;;;;;;;31.21;63.79;100930.97;5038706;28;70280;-48
2021/08/20 02:28:26;;;;;;;12.45;9.68;;;;;;;31.29;63.79;100943.41;5047184;28;66193;-48
2021/08/20 02:31:02;;;;;;;12.02;10.43;;;;;;;31.31;63.58;100941.28;5053148;28;70417;-47
2021/08/20 02:33:43;;;;;;;11.25;10.07;;;;;;;31.33;63.98;100950.03;5058177;28;66520;-48
2021/08/20 02:36:15;;;;;;;10.90;10.10;;;;;;;31.34;63.64;100930.00;5022258;28;69957;-47
2021/08/20 02:38:46;;;;;;;10.23;9.53;;;;;;;31.39;63.25;100941.03;5053871;28;65310;-47
2021/08/20 02:41:21;;;;;;;10.82;9.68;;;;;;;31.42;63.26;100931.63;5034729;28;69619;-48
2021/08/20 02:43:53;;;;;;;13.07;10.48;;;;;;;31.46;63.22;100939.13;5047971;28;65213;-48
2021/08/20 02:46:24;;;;;;;10.35;9.30;;;;;;;31.47;63.18;100939.94;5056968;28;70090;-49
2021/08/20 02:48:59;;;;;;;9.30;8.38;;;;;;;31.52;62.83;100940.09;5054148;28;65853;-47
2021/08/20 02:51:30;;;;;;;9.60;8.60;;;;;;;31.54;63.14;100935.28;5068595;28;70732;-47
2021/08/20 02:54:03;;;;;;;10.00;9.07;;;;;;;31.54;63.11;100941.53;5059846;28;65859;-47
2021/08/20 02:56:35;;;;;;;;;;;;;;;31.28;63.31;100942.56;5068062;27;71036;-47
2021/08/20 02:59:07;;;;;;;8.20;7.70;;;;;;;31.56;62.70;100944.00;5070009;27;66862;-47
2021/08/20 03:01:39;;;;;;;9.18;8.30;;;;;;;31.59;62.82;100955.25;5039518;28;70304;-46
2021/08/20 03:04:17;;;;;;;8.43;7.88;;;;;;;31.50;62.54;100923.22;5056855;28;65849;-49
2021/08/20 03:06:48;;;;;;;9.02;8.27;;;;;;;31.57;62.66;100924.81;5050655;28;70016;-48
2021/08/20 03:09:30;;;;;;;8.07;7.43;;;;;;;31.61;62.57;100931.44;5041066;28;65420;-48
2021/08/20 03:12:02;;;;;;;10.90;7.97;;;;;;;31.63;62.58;100923.09;5038785;28;69686;-49
2021/08/20 03:14:40;;;;;;;9.00;8.30;;;;;;;31.64;62.40;100923.91;5040536;28;66442;-47
2021/08/20 03:17:11;;;;;;;7.90;7.43;;;;;;;31.63;62.68;100914.97;5059902;28;69239;-47
2021/08/20 03:19:43;;;;;;;8.13;7.45;;;;;;;31.64;62.47;100907.66;5019024;28;65854;-46
2021/08/20 03:22:21;;;;;;;6.80;6.40;;;;;;;31.52;62.36;100878.56;5072575;27;70523;-47
2021/08/20 03:25:08;;;;;;;7.72;7.22;;;;;;;31.66;61.66;100900.13;5097724;27;44575;-47
2021/08/20 03:27:56;;;;;;;6.93;6.43;;;;;;;31.56;60.21;100885.19;5086405;27;43834;-49
2021/08/20 03:30:57;;;;;;;8.48;7.85;;;;;;;31.46;58.41;100886.78;5074364;27;43761;-47
2021/08/20 03:33:44;;;;;;;7.20;6.80;;;;;;;31.34;57.50;100882.06;5086972;27;43697;-47
2021/08/20 03:36:32;;;;;;;7.35;6.78;;;;;;;31.20;56.15;100887.81;5042389;27;2732627;-47
2021/08/20 03:39:26;;;;;;;5.88;5.35;;;;;;;31.05;55.39;100878.16;5068539;27;43809;-47
2021/08/20 03:42:10;;;;;;;6.03;5.72;;;;;;;31.02;54.14;100888.59;5084304;27;44447;-47
2021/08/20 03:45:03;;;;;;;6.43;5.93;;;;;;;30.92;53.82;100878.25;5089677;27;43724;-47
2021/08/20 03:47:49;;;;;;;6.22;5.75;;;;;;;30.85;52.69;100877.50;5064478;27;43683;-47
2021/08/20 03:50:34;;;;;;;6.05;5.55;;;;;;;30.75;52.70;100877.13;5058731;27;44406;-45
2021/08/20 03:53:20;;;;;;;19.92;6.70;;;;;;;30.77;53.19;100880.44;5084564;27;43802;-44
2021/08/20 03:56:05;;;;;;;17.23;4.45;;;;;;;30.77;52.98;100869.59;5051461;28;43763;-45
2021/08/20 03:59:03;;;;;;;7.32;4.00;;;;;;;30.75;52.90;100874.41;5073671;27;44364;-45
2021/08/20 04:01:52;;;;;;;16.65;4.22;;;;;;;30.76;53.24;100863.38;5085018;27;43991;-46
2021/08/20 04:04:36;;;;;;;8.55;3.78;;;;;;;30.71;53.83;100866.72;5060305;27;44383;-48
2021/08/20 04:07:43;;;;;;;10.43;4.00;;;;;;;30.71;54.64;100861.31;5071711;27;44401;-46
2021/08/20 04:10:47;;;;;;;10.45;4.15;;;;;;;30.68;53.49;100859.03;5084289;27;44600;-45
2021/08/20 04:13:44;;;;;;;5.75;3.08;;;;;;;30.68;53.14;100861.75;5087673;27;44862;-47
2021/08/20 04:16:30;;;;;;;5.88;2.70;;;;;;;30.68;52.13;100856.34;5083042;27;44213;-45
2021/08/20 04:19:14;;;;;;;4.72;2.20;;;;;;;30.64;52.12;100855.09;5073513;27;42912;-46
2021/08/20 04:21:59;;;;;;;10.50;1.83;;;;;;;30.60;51.59;100851.19;5073742;27;43776;-45
2021/08/20 04:24:42;;;;;;;1.73;1.63;;;;;;;30.57;51.27;100848.91;5087164;27;44401;-45
2021/08/20 04:27:42;;;;;;;4.07;1.83;;;;;;;30.48;51.27;100845.66;5060942;27;2408986;-46
2021/08/20 04:30:47;;;;;;;4.25;1.30;;;;;;;30.45;50.38;100839.81;5081578;27;44412;-44
2021/08/20 04:34:04;;;;;;;1.30;1.20;;;;;;;30.37;49.98;100832.81;5087186;27;43574;-44
2021/08/20 04:37:10;;;;;;;6.30;1.13;;;;;;;30.39;50.40;100841.53;5086896;27;44658;-45
2021/08/20 04:40:32;;;;;;;2.65;1.15;;;;;;;30.34;50.60;100837.81;5069478;27;43728;-46
2021/08/20 04:43:39;;;;;;;1.00;1.00;;;;;;;30.37;50.10;100831.97;5096556;27;43808;-44
2021/08/20 04:46:55;;;;;;;0.80;0.80;;;;;;;30.36;49.41;100833.03;5100540;27;44494;-44
2021/08/20 04:50:01;;;;;;;3.92;0.93;;;;;;;30.34;49.23;100832.41;5075593;27;44459;-42
2021/08/20 04:53:00;;;;;;;1.85;1.17;;;;;;;30.31;49.49;100816.59;5087982;27;2337677;-44
2021/08/20 04:56:03;;;;;;;3.95;0.95;;;;;;;30.29;49.06;100814.13;5076707;27;44447;-44
2021/08/20 04:58:44;;;;;;;0.88;0.88;;;;;;;30.17;49.22;100784.22;5031267;27;3193402;-45
2021/08/20 05:01:41;;;;;;;5.68;1.13;;;;;;;30.31;49.20;100803.06;5091334;27;43712;-45
2021/08/20 05:04:40;;;;;;;1.60;1.50;;;;;;;30.29;50.04;100789.78;5145194;27;43660;-46
2021/08/20 05:07:40;;;;;;;8.13;1.83;;;;;;;30.27;49.78;100781.03;5087039;27;44808;-46
2021/08/20 05:10:36;;;;;;;8.27;1.30;;;;;;;30.32;49.47;100780.41;5095235;27;44105;-45
2021/08/20 05:13:35;;;;;;;6.28;1.20;;;;;;;30.27;49.10;100779.16;5085653;27;43724;-46
2021/08/20 05:16:33;;;;;;;5.90;1.20;;;;;;;30.25;48.91;100775.84;5087564;27;43720;-45
2021/08/20 05:19:30;;;;;;;7.20;2.28;;;;;;;30.25;50.38;100766.91;5087642;27;43785;-44
2021/08/20 05:22:53;;;;;;;9.40;2.40;;;;;;;30.10;52.98;100767.19;5089740;27;43852;-45
2021/08/20 05:26:11;;;;;;;4.38;2.80;;;;;;;30.20;53.50;100761.28;5142611;27;43697;-44
2021/08/20 05:29:08;;;;;;;3.75;2.13;;;;;;;30.15;53.17;100756.53;5083631;27;44734;-46
2021/08/20 05:31:39;;;;;;;2.50;1.88;;;;;;;30.12;53.33;100758.88;5062764;27;71099;-45
2021/08/20 05:34:23;;;;;;;1.80;1.70;;;;;;;30.05;53.00;100739.94;5092052;27;44450;-45
2021/08/20 05:37:06;;;;;;;3.53;1.30;;;;;;;29.95;52.40;100724.22;5051234;27;44778;-45
2021/08/20 05:39:52;;;;;;;4.78;1.15;;;;;;;30.05;52.31;100729.13;5046642;28;43941;-46
2021/08/20 05:42:36;;;;;;;4.38;1.50;;;;;;;30.05;52.72;100715.59;5082730;27;43194;-44
2021/08/20 05:45:19;;;;;;;2.83;1.65;;;;;;;30.16;52.31;100717.59;5071818;27;43622;-46
2021/08/20 05:48:06;;;;;;;3.60;1.80;;;;;;;30.28;50.91;100710.50;5065424;27;44476;-45
2021/08/20 05:50:51;;;;;;;6.90;1.52;;;;;;;30.34;50.43;100707.91;5077697;27;42924;-45
2021/08/20 05:53:37;;;;;;;4.38;1.55;;;;;;;30.38;49.50;100698.34;5085793;27;44903;-45
2021/08/20 05:56:18;;;;;;;2.25;1.73;;;;;;;30.39;48.83;100695.38;5051164;27;2390275;-45
2021/08/20 05:59:02;;;;;;;2.55;1.58;;;;;;;30.49;48.16;100703.03;5077809;27;44651;-44
2021/08/20 06:01:47;;;;;;;3.15;1.88;;;;;;;30.50;47.67;100685.72;5061262;27;43685;-45
2021/08/20 06:04:31;;;;;;;2.00;1.90;;;;;;;30.60;48.10;100680.63;5043616;27;2425652;-42
2021/08/20 06:07:18;;;;;;;1.67;1.58;;;;;;;30.59;47.35;100679.00;5062185;27;43744;-45
2021/08/20 06:10:03;;;;;;;2.00;1.90;;;;;;;30.60;47.23;100667.09;5067060;27;43657;-45
2021/08/20 06:12:46;;;;;;;6.82;1.65;;;;;;;30.65;46.31;100671.84;5055285;27;44468;-45
2021/08/20 06:15:32;;;;;;;2.35;1.90;;;;;;;30.70;46.51;100675.53;5092664;27;45205;-44
2021/08/20 06:18:17;;;;;;;2.08;1.98;;;;;;;30.62;46.44;100640.63;5074210;27;43785;-44
2021/08/20 06:21:01;;;;;;;2.45;2.20;;;;;;;30.73;46.25;100658.03;5076257;27;44563;-45
2021/08/20 06:23:47;;;;;;;2.35;2.20;;;;;;;30.74;45.12;100638.00;5053129;28;43674;-44
2021/08/20 06:26:33;;;;;;;2.42;2.22;;;;;;;30.81;45.83;100637.94;5091254;27;44608;-44
2021/08/20 06:29:20;;;;;;;2.20;2.10;;;;;;;30.80;44.62;100620.88;5079084;27;43826;-45
2021/08/20 06:32:06;;;;;;;2.25;2.15;;;;;;;30.84;44.91;100616.69;5095338;27;43100;-44
2021/08/20 06:34:50;;;;;;;2.70;2.50;;;;;;;30.86;44.27;100619.16;5086265;27;43814;-45
2021/08/20 06:37:37;;;;;;;2.45;2.35;;;;;;;30.88;44.59;100611.63;5091764;27;43823;-46
2021/08/20 06:40:22;;;;;;;2.50;2.35;;;;;;;30.86;44.60;100602.91;5077712;27;44732;-44
2021/08/20 06:42:55;;;;;;;3.60;2.28;;;;;;;30.90;44.23;100614.94;5082203;27;69477;-46
2021/08/20 06:45:40;;;;;;;3.30;3.10;;;;;;;30.93;44.66;100619.91;5085815;27;44639;-44
2021/08/20 06:48:25;;;;;;;3.10;2.90;;;;;;;30.89;44.01;100624.94;5085594;27;44508;-45
2021/08/20 06:51:14;;;;;;;6.30;3.00;;;;;;;30.93;44.13;100630.75;5083279;27;43733;-45
2021/08/20 06:53:58;;;;;;;3.50;3.30;;;;;;;30.95;44.46;100634.03;5066896;27;43569;-46
2021/08/20 06:56:42;;;;;;;3.08;2.92;;;;;;;30.94;43.87;100632.38;5036353;27;2735041;-45
2021/08/20 06:59:24;;;;;;;4.00;3.65;;;;;;;30.96;43.65;100624.88;5036591;27;3147533;-46
2021/08/20 07:02:10;;;;;;;4.40;4.00;;;;;;;30.98;44.04;100617.34;5085563;27;44606;-46
2021/08/20 07:05:04;;;;;;;4.57;4.28;;;;;;;30.99;43.52;100612.75;5073667;27;43726;-44
2021/08/20 07:07:51;;;;;;;3.95;3.65;;;;;;;31.03;43.50;100622.06;5072341;27;43795;-45
2021/08/20 07:10:38;;;;;;;5.35;4.88;;;;;;;31.01;43.61;100616.91;5064705;27;44753;-44
2021/08/20 07:13:23;;;;;;;5.35;4.95;;;;;;;31.00;43.70;100598.97;5079688;27;43601;-46
2021/08/20 07:16:06;;;;;;;5.13;4.82;;;;;;;31.05;44.03;100607.25;5040658;27;2890585;-46
2021/08/20 07:18:48;;;;;;;4.55;4.25;;;;;;;31.05;43.78;100609.13;5045864;27;2820968;-45
2021/08/20 07:21:31;;;;;;;5.63;4.93;;;;;;;31.02;43.22;100604.16;5066301;27;2722400;-46
2021/08/20 07:24:17;;;;;;;5.55;5.25;;;;;;;31.05;43.12;100609.94;5065485;27;43221;-45
2021/08/20 07:27:06;;;;;;;5.40;5.10;;;;;;;31.07;43.38;100588.06;5071866;27;43746;-44
2021/08/20 07:29:54;;;;;;;5.78;5.38;;;;;;;31.04;43.45;100602.06;5066704;27;44441;-44
2021/08/20 07:33:13;;;;;;;5.88;5.50;;;;;;;31.02;43.26;100585.22;5122600;27;44517;-45
2021/08/20 07:35:58;;;;;;;5.38;5.07;;;;;;;31.01;43.15;100576.25;5089886;27;44954;-46
2021/08/20 07:38:44;;;;;;;5.47;5.07;;;;;;;31.02;43.14;100569.78;5082257;27;44469;-46
2021/08/20 07:41:28;;;;;;;5.47;5.17;;;;;;;30.99;43.00;100586.50;4952155;27;5026172;-45
2021/08/20 07:44:15;;;;;;;5.18;4.88;;;;;;;30.99;43.34;100591.91;5078506;27;43710;-45
2021/08/20 07:47:02;;;;;;;5.30;5.00;;;;;;;30.96;42.94;100597.78;5087813;27;43768;-46
2021/08/20 07:49:47;;;;;;;4.85;4.55;;;;;;;30.89;42.65;100580.78;5070798;27;44442;-46
2021/08/20 07:52:33;;;;;;;5.07;4.78;;;;;;;30.91;42.77;100575.97;5090474;27;44599;-41
2021/08/20 07:55:18;;;;;;;5.15;4.57;;;;;;;30.85;42.62;100566.03;5094646;27;44465;-40
2021/08/20 07:58:04;;;;;;;4.47;4.18;;;;;;;30.86;42.43;100575.81;5119378;27;43750;-41
2021/08/20 08:00:38;;;;;;;4.65;4.35;;;;;;;30.82;43.11;100580.88;5092899;27;69971;-41
2021/08/20 08:03:36;;;;;;;4.68;4.38;;;;;;;30.82;43.38;100582.75;5065952;27;44581;-41
2021/08/20 08:06:35;;;;;;;6.93;4.05;;;;;;;30.81;43.43;100590.03;5091438;27;45187;-42
2021/08/20 08:09:49;;;;;;;6.07;4.50;;;;;;;30.80;42.83;100584.84;5147353;27;43658;-41
2021/08/20 08:12:50;;;;;;;3.97;3.75;;;;;;;30.79;43.21;100586.72;5087068;27;44556;-43
2021/08/20 08:15:54;;;;;;;4.55;4.28;;;;;;;30.75;42.74;100579.25;5108056;27;44480;-42
2021/08/20 08:18:53;;;;;;;4.40;4.10;;;;;;;30.72;43.26;100570.53;5085270;27;43669;-41
2021/08/20 08:21:51;;;;;;;4.70;4.30;;;;;;;30.71;43.05;100574.28;5082515;27;44589;-46
2021/08/20 08:24:53;;;;;;;7.20;4.20;;;;;;;30.69;42.31;100559.31;5189257;27;45044;-41
2021/08/20 08:27:59;;;;;;;6.32;4.20;;;;;;;30.72;44.16;100559.69;5083973;27;44149;-41
2021/08/20 08:31:02;;;;;;;13.75;4.72;;;;;;;30.81;47.08;100564.84;5100014;27;43663;-42
2021/08/20 08:34:04;;;;;;;6.53;4.97;;;;;;;31.01;49.74;100567.28;5099853;27;43723;-41
2021/08/20 08:37:02;;;;;;;4.22;3.92;;;;;;;31.20;50.14;100577.03;5088204;27;43794;-45
2021/08/20 08:40:20;;;;;;;4.15;3.85;;;;;;;31.41;52.61;100588.47;5134701;27;43924;-42
2021/08/20 08:43:18;;;;;;;5.15;4.80;;;;;;;31.44;53.83;100605.06;5085598;27;43751;-41
2021/08/20 08:46:09;;;;;;;4.88;4.45;;;;;;;31.49;56.13;100613.34;4602407;27;15345451;-43
2021/08/20 08:48:58;;;;;;;6.82;4.47;;;;;;;31.57;55.42;100621.16;5085395;27;44667;-41
2021/08/20 08:51:43;;;;;;;4.40;4.10;;;;;;;31.63;56.26;100622.09;5070490;27;43943;-41
2021/08/20 08:54:29;;;;;;;4.63;4.32;;;;;;;31.73;57.08;100618.81;5008755;27;3520451;-42
2021/08/20 08:57:15;;;;;;;5.47;3.60;;;;;;;31.78;57.52;100618.94;5007174;27;3523592;-41
2021/08/20 09:00:07;;;;;;;4.57;3.35;;;;;;;31.82;57.38;100601.16;5127089;27;70188;-40
2021/08/20 09:02:54;;;;;;;10.07;3.35;;;;;;;31.86;57.99;100596.09;5077192;27;43677;-42
2021/08/20 09:05:50;;;;;;;3.67;3.38;;;;;;;31.87;59.04;100582.28;5079187;27;43129;-40
2021/08/20 09:08:39;;;;;;;3.30;2.97;;;;;;;31.95;57.62;100589.28;5128022;27;43739;-42
2021/08/20 09:11:30;;;;;;;3.10;2.75;;;;;;;31.99;58.22;100596.75;5087798;27;43728;-42
2021/08/20 09:14:17;;;;;;;3.13;2.63;;;;;;;32.01;58.76;100605.47;5050609;28;44476;-42
2021/08/20 09:17:01;;;;;;;2.58;2.42;;;;;;;32.05;58.30;100611.25;5077088;27;43712;-43
2021/08/20 09:19:45;;;;;;;2.90;2.70;;;;;;;32.07;58.70;100614.56;5058202;27;44612;-44
2021/08/20 09:22:34;;;;;;;3.70;3.50;;;;;;;32.05;59.76;100620.22;5085399;27;43706;-43
2021/08/20 09:25:45;;;;;;;3.15;2.85;;;;;;;31.86;60.14;100599.63;5077209;27;43823;-42
2021/08/20 09:28:33;;;;;;;3.08;2.88;;;;;;;32.12;59.21;100621.97;5138155;27;44640;-43
2021/08/20 09:31:17;;;;;;;3.13;2.88;;;;;;;32.13;59.12;100626.34;5076506;27;44489;-44
2021/08/20 09:34:03;;;;;;;3.85;3.55;;;;;;;32.16;59.00;100634.03;5073514;27;2295588;-43
2021/08/20 09:36:48;;;;;;;3.70;3.40;;;;;;;32.13;59.66;100639.94;5060878;27;43760;-43
2021/08/20 09:40:08;;;;;;;3.03;2.83;;;;;;;32.19;59.64;100660.69;5101962;27;44477;-42
2021/08/20 09:43:09;;;;;;;3.60;3.35;;;;;;;32.12;59.77;100660.78;5070989;27;44608;-43
2021/08/20 09:46:03;;;;;;;5.25;4.82;;;;;;;32.04;60.71;100648.41;5073009;27;44428;-42
2021/08/20 09:48:51;;;;;;;5.88;5.32;;;;;;;32.21;60.80;100691.16;5095591;27;44485;-43
2021/08/20 09:51:38;;;;;;;6.30;5.03;;;;;;;32.12;61.28;100676.25;5134438;27;44471;-43
2021/08/20 09:54:26;;;;;;;5.78;5.38;;;;;;;32.05;61.10;100655.47;5063724;27;2266453;-43
2021/08/20 09:57:15;;;;;;;6.47;5.95;;;;;;;32.22;62.15;100665.66;5060438;27;44298;-43
2021/08/20 10:00:03;;;;;;;6.60;6.03;;;;;;;32.26;61.98;100661.38;5133293;27;43697;-43
2021/08/20 10:02:54;;;;;;;7.03;6.38;;;;;;;32.24;62.49;100663.53;5086304;27;44823;-42
2021/08/20 10:05:38;;;;;;;6.72;6.22;;;;;;;32.24;62.37;100653.50;5114445;27;43764;-42
2021/08/20 10:08:22;;;;;;;8.77;8.18;;;;;;;32.26;62.73;100666.81;5081765;27;44491;-44
2021/08/20 10:11:06;;;;;;;9.02;8.23;;;;;;;32.23;63.43;100670.84;5151423;27;44487;-43
2021/08/20 10:13:50;;;;;;;12.40;9.55;;;;;;;32.27;63.26;100676.63;5091372;27;43742;-43
2021/08/20 10:16:21;;;;;;;11.27;10.02;;;;;;;32.21;63.78;100670.25;5095093;27;69627;-42
2021/08/20 10:18:51;;;;;;;12.33;11.13;;;;;;;32.23;63.98;100672.72;5096130;27;66004;-42
2021/08/20 10:21:23;;;;;;;10.95;9.90;;;;;;;32.23;64.10;100681.72;5077947;27;69154;-42
2021/08/20 10:23:53;;;;;;;11.37;10.20;;;;;;;32.18;64.73;100683.44;5087758;27;65636;-41
2021/08/20 10:26:24;;;;;;;10.85;9.38;;;;;;;32.17;64.24;100681.81;5094144;27;69338;-42
2021/08/20 10:28:57;;;;;;;9.52;8.45;;;;;;;32.16;64.24;100689.13;5092161;27;66859;-42
2021/08/20 10:31:28;;;;;;;9.20;7.90;;;;;;;32.14;63.83;100693.13;5088384;27;69212;-43
2021/08/20 10:33:58;;;;;;;8.60;8.00;;;;;;;32.09;64.50;100703.84;5091620;27;66726;-42
2021/08/20 10:36:39;;;;;;;7.95;7.35;;;;;;;31.98;64.55;100706.31;5086681;27;69888;-42
2021/08/20 10:39:24;;;;;;;7.30;6.57;;;;;;;31.96;64.17;100700.28;5085543;27;65372;-43
2021/08/20 10:42:11;;;;;;;7.30;6.57;;;;;;;31.90;64.82;100712.06;5080582;27;70522;-42
2021/08/20 10:45:12;;;;;;;6.50;6.10;;;;;;;31.75;64.89;100698.06;5072140;27;43792;-42
2021/08/20 10:48:16;;;;;;;5.97;5.57;;;;;;;31.84;65.38;100745.50;5087704;27;44328;-41
2021/08/20 10:50:59;;;;;;;5.55;5.13;;;;;;;31.87;65.01;100745.03;5091463;27;43648;-42
2021/08/20 10:53:48;;;;;;;5.72;4.93;;;;;;;31.90;65.60;100760.03;5084990;27;44364;-43
2021/08/20 10:56:32;;;;;;;5.38;4.97;;;;;;;31.82;65.13;100770.16;5084328;27;69264;-43
2021/08/20 10:59:39;;;;;;;10.05;4.65;;;;;;;31.79;65.35;100770.63;5068024;27;43691;-41
2021/08/20 11:02:22;;;;;;;4.90;4.57;;;;;;;31.86;65.09;100770.50;5078863;27;44404;-43
2021/08/20 11:05:12;;;;;;;4.30;4.00;;;;;;;31.80;65.20;100766.00;5089279;27;43706;-43
2021/08/20 11:07:54;;;;;;;4.40;4.10;;;;;;;31.82;65.41;100777.47;5055838;27;2275228;-43
2021/08/20 11:10:37;;;;;;;4.35;3.70;;;;;;;31.85;65.29;100800.59;5096190;27;43625;-43
2021/08/20 11:13:20;;;;;;;4.30;4.00;;;;;;;31.82;65.03;100805.41;5091774;27;44917;-43
2021/08/20 11:16:03;;;;;;;3.63;3.42;;;;;;;31.81;65.22;100813.78;5056610;28;43588;-42
2021/08/20 11:18:50;;;;;;;4.40;4.10;;;;;;;31.71;64.94;100806.19;5102034;27;43726;-42
2021/08/20 11:21:45;;;;;;;4.13;3.83;;;;;;;31.75;65.62;100828.25;5066816;27;44526;-42
2021/08/20 11:24:29;;;;;;;3.88;3.58;;;;;;;31.75;65.42;100847.22;5055783;28;44435;-43
2021/08/20 11:27:16;;;;;;;4.47;3.20;;;;;;;31.75;65.35;100855.38;5092846;27;43733;-43
2021/08/20 11:30:03;;;;;;;4.18;3.97;;;;;;;31.74;65.40;100856.44;5116334;27;44459;-42
2021/08/20 11:32:34;;;;;;;3.95;3.65;;;;;;;31.72;65.58;100853.13;5095220;27;70059;-43
2021/08/20 11:35:05;;;;;;;3.22;3.03;;;;;;;31.72;65.48;100855.81;5093901;27;65714;-42
2021/08/20 11:37:35;;;;;;;3.50;3.30;;;;;;;31.71;65.45;100865.84;5097269;27;70236;-43
2021/08/20 11:40:10;;;;;;;6.47;3.40;;;;;;;31.66;65.57;100845.88;5092404;27;66495;-40
2021/08/20 11:42:40;;;;;;;3.88;3.50;;;;;;;31.81;65.65;100878.88;5087009;27;69300;-41
2021/08/20 11:45:21;;;;;;;4.28;4.07;;;;;;;31.80;65.95;100885.34;5099189;27;66327;-42
2021/08/20 11:48:00;;;;;;;4.65;3.80;;;;;;;31.79;66.44;100868.25;5100417;27;70208;-42
2021/08/20 11:50:32;;;;;;;5.50;3.90;;;;;;;31.81;66.32;100868.84;5110874;27;66364;-45
2021/08/20 11:53:03;;;;;;;4.68;4.38;;;;;;;31.75;66.81;100860.78;5110772;27;69627;-44
2021/08/20 11:55:34;;;;;;;9.57;4.57;;;;;;;31.77;66.43;100869.53;5092045;27;65282;-43
2021/08/20 11:58:26;;;;;;;20.73;4.75;;;;;;;31.78;66.76;100872.00;5073455;27;71027;-43
2021/08/20 12:00:57;;;;;;;4.03;3.72;;;;;;;31.78;67.08;100871.19;5097952;27;65606;-45
2021/08/20 12:03:28;;;;;;;4.30;4.10;;;;;;;31.80;67.06;100874.50;5096279;27;70082;-43
2021/08/20 12:06:13;;;;;;;3.95;3.75;;;;;;;31.76;67.59;100867.88;5116942;27;66464;-43
2021/08/20 12:08:44;;;;;;;4.60;4.32;;;;;;;31.81;67.06;100876.16;5082387;27;70304;-45
2021/08/20 12:11:21;;;;;;;5.10;4.57;;;;;;;31.79;67.75;100886.41;5112848;27;66572;-41
2021/08/20 12:13:54;;;;;;;4.60;4.30;;;;;;;31.79;67.19;100884.53;5094209;27;70950;-43
2021/08/20 12:16:36;;;;;;;12.32;5.35;;;;;;;31.65;67.91;100861.34;5113152;27;65753;-41
2021/08/20 12:19:13;;;;;;;4.97;4.68;;;;;;;31.78;67.84;100876.59;5111230;27;69399;-44
2021/08/20 12:21:47;;;;;;;5.03;4.72;;;;;;;31.84;67.41;100886.53;5096300;27;65994;-44
2021/08/20 12:24:34;;;;;;;6.10;5.63;;;;;;;31.75;68.83;100887.91;5109020;27;70012;-42
2021/08/20 12:27:19;;;;;;;5.55;5.20;;;;;;;31.82;68.30;100899.53;5110243;27;66387;-41
2021/08/20 12:29:59;;;;;;;5.80;5.50;;;;;;;31.82;68.76;100894.09;5099442;27;69812;-44
2021/08/20 12:32:31;;;;;;;5.35;5.05;;;;;;;31.86;68.18;100898.00;5097181;27;65818;-43
2021/08/20 12:35:15;;;;;;;5.97;5.60;;;;;;;31.71;68.23;100873.16;5091692;27;69685;-41
2021/08/20 12:38:04;;;;;;;5.30;4.72;;;;;;;31.65;66.84;100868.63;5110342;27;65395;-41
2021/08/20 12:40:43;;;;;;;6.40;4.03;;;;;;;31.50;65.52;100875.25;5084441;27;70158;-41